createdAt,value
2023-01-11T00:02:12.145Z,97514.41
2023-01-11T00:04:44.691Z,97518.56
2023-01-11T00:07:17.213Z,97511.91
2023-01-11T00:09:49.816Z,97503.00
2023-01-11T00:12:22.527Z,97497.25
2023-01-11T00:14:55.052Z,97499.63
2023-01-11T00:17:29.123Z,97505.41
2023-01-11T00:20:01.763Z,97508.66
2023-01-11T00:22:34.366Z,97507.50
2023-01-11T00:25:07.081Z,97507.72
2023-01-11T00:27:39.597Z,97510.41
2023-01-11T00:30:12.405Z,97505.41
2023-01-11T00:32:45.025Z,97509.00
2023-01-11T00:35:17.597Z,97512.78
2023-01-11T00:37:50.119Z,97504.91
2023-01-11T00:40:22.674Z,97505.75
2023-01-11T00:42:55.204Z,97503.53
2023-01-11T00:45:28.073Z,97496.38
2023-01-11T00:48:02.383Z,97493.00
2023-01-11T00:50:38.117Z,97497.81
2023-01-11T00:53:10.639Z,97488.81
2023-01-11T00:55:43.155Z,97484.69
2023-01-11T00:58:15.692Z,97488.16
2023-01-11T01:00:48.228Z,97481.81
2023-01-11T01:03:20.781Z,97479.28
2023-01-11T01:05:54.889Z,97485.13
2023-01-11T01:08:27.417Z,97478.13
2023-01-11T01:10:59.950Z,97477.41
2023-01-11T01:13:32.480Z,97468.25
2023-01-11T01:16:05.394Z,97472.94
2023-01-11T01:18:38.003Z,97463.34
2023-01-11T01:21:10.687Z,97464.28
2023-01-11T01:23:43.220Z,97460.91
2023-01-11T01:26:15.754Z,97466.31
2023-01-11T01:28:48.545Z,97457.41
2023-01-11T01:31:21.098Z,97461.69
2023-01-11T01:33:53.785Z,97456.56
2023-01-11T01:36:26.325Z,97452.44
2023-01-11T01:39:04.452Z,97451.47
2023-01-11T01:41:37.553Z,97455.22
2023-01-11T01:44:48.741Z,97465.31
2023-01-11T01:47:46.240Z,97462.84
2023-01-11T01:50:32.866Z,97473.63
2023-01-11T01:53:12.698Z,97462.06
2023-01-11T01:55:52.078Z,97463.97
2023-01-11T01:58:41.366Z,97458.59
2023-01-11T02:01:15.599Z,97471.88
2023-01-11T02:03:50.704Z,97471.94
2023-01-11T02:06:23.933Z,97479.72
2023-01-11T02:09:07.731Z,97477.72
2023-01-11T02:11:40.583Z,97481.34
2023-01-11T02:14:19.151Z,97473.97
2023-01-11T02:16:51.772Z,97466.78
2023-01-11T02:19:38.241Z,97462.13
2023-01-11T02:22:35.112Z,97466.81
2023-01-11T02:25:25.526Z,97454.13
2023-01-11T02:28:00.645Z,97444.56
2023-01-11T02:30:58.964Z,97447.97
2023-01-11T02:33:52.791Z,97445.91
2023-01-11T02:36:54.357Z,97445.09
2023-01-11T02:39:26.836Z,97446.69
2023-01-11T02:42:13.844Z,97448.75
2023-01-11T02:45:14.915Z,97442.16
2023-01-11T02:48:04.321Z,97435.41
2023-01-11T02:50:58.332Z,97431.13
2023-01-11T02:53:59.114Z,97418.88
2023-01-11T02:56:41.778Z,97412.31
2023-01-11T02:59:20.518Z,97415.75
2023-01-11T03:01:54.727Z,97405.22
2023-01-11T03:04:30.065Z,97406.34
2023-01-11T03:07:30.942Z,97394.78
2023-01-11T03:10:30.775Z,97399.88
2023-01-11T03:13:06.183Z,97399.31
2023-01-11T03:15:58.966Z,97394.78
2023-01-11T03:18:54.068Z,97404.03
2023-01-11T03:21:34.517Z,97397.94
2023-01-11T03:24:48.038Z,97392.16
2023-01-11T03:27:56.713Z,97398.53
2023-01-11T03:30:51.793Z,97400.34
2023-01-11T03:33:48.616Z,97391.59
2023-01-11T03:36:36.537Z,97386.56
2023-01-11T03:39:25.862Z,97382.03
2023-01-11T03:42:02.620Z,97380.09
2023-01-11T03:44:43.369Z,97379.97
2023-01-11T03:47:22.145Z,97384.44
2023-01-11T03:49:59.152Z,97372.09
2023-01-11T03:52:38.038Z,97365.53
2023-01-11T03:55:16.367Z,97362.31
2023-01-11T03:57:50.587Z,97364.00
2023-01-11T04:00:25.990Z,97360.94
2023-01-11T04:03:00.054Z,97361.47
2023-01-11T04:05:35.458Z,97354.84
2023-01-11T04:08:08.001Z,97355.38
2023-01-11T04:10:40.544Z,97361.03
2023-01-11T04:13:13.080Z,97351.81
2023-01-11T04:15:45.936Z,97357.78
2023-01-11T04:18:18.486Z,97366.22
2023-01-11T04:20:51.031Z,97356.88
2023-01-11T04:23:23.567Z,97348.06
2023-01-11T04:25:56.092Z,97344.72
2023-01-11T04:28:28.619Z,97340.47
2023-01-11T04:31:01.166Z,97338.78
2023-01-11T04:33:33.686Z,97342.31
2023-01-11T04:36:08.593Z,97343.66
2023-01-11T04:38:41.154Z,97338.31
2023-01-11T04:41:13.711Z,97340.72
2023-01-11T04:43:46.236Z,97340.41
2023-01-11T04:46:18.751Z,97342.56
2023-01-11T04:48:51.803Z,97344.81
2023-01-11T04:51:24.372Z,97339.34
2023-01-11T04:53:56.960Z,97344.94
2023-01-11T04:56:29.586Z,97341.63
2023-01-11T04:59:02.131Z,97338.59
2023-01-11T05:01:34.669Z,97332.44
2023-01-11T05:04:07.246Z,97343.16
2023-01-11T05:06:39.936Z,97348.13
2023-01-11T05:09:16.024Z,97349.75
2023-01-11T05:11:48.678Z,97346.44
2023-01-11T05:14:21.412Z,97337.66
2023-01-11T05:16:54.030Z,97337.22
2023-01-11T05:19:26.614Z,97340.31
2023-01-11T05:21:59.190Z,97337.47
2023-01-11T05:24:31.779Z,97338.59
2023-01-11T05:27:04.364Z,97329.84
2023-01-11T05:29:37.003Z,97331.19
2023-01-11T05:32:09.925Z,97324.22
2023-01-11T05:34:42.545Z,97324.81
2023-01-11T05:37:15.166Z,97323.03
2023-01-11T05:39:47.736Z,97321.56
2023-01-11T05:42:21.267Z,97323.50
2023-01-11T05:44:56.824Z,97309.88
2023-01-11T05:47:30.683Z,97304.59
2023-01-11T05:50:03.486Z,97307.75
2023-01-11T05:52:36.062Z,97311.44
2023-01-11T05:55:08.835Z,97307.75
2023-01-11T05:57:42.252Z,97318.13
2023-01-11T06:00:15.339Z,97311.75
2023-01-11T06:02:48.140Z,97304.31
2023-01-11T06:05:20.764Z,97307.75
2023-01-11T06:07:53.919Z,97301.63
2023-01-11T06:10:26.531Z,97310.38
2023-01-11T06:12:59.169Z,97308.56
2023-01-11T06:15:31.792Z,97313.63
2023-01-11T06:18:04.487Z,97301.66
2023-01-11T06:20:37.176Z,97306.38
2023-01-11T06:23:09.777Z,97309.34
2023-01-11T06:25:44.019Z,97309.28
2023-01-11T06:28:17.948Z,97308.50
2023-01-11T06:30:56.087Z,97304.97
2023-01-11T06:33:29.818Z,97306.63
2023-01-11T06:36:08.419Z,97297.91
2023-01-11T06:38:41.623Z,97301.56
2023-01-11T06:41:14.230Z,97303.50
2023-01-11T06:43:46.942Z,97303.94
2023-01-11T06:46:19.869Z,97313.81
2023-01-11T06:48:52.513Z,97312.50
2023-01-11T06:51:25.107Z,97315.19
2023-01-11T06:53:57.688Z,97314.34
2023-01-11T06:56:30.277Z,97315.34
2023-01-11T06:59:02.853Z,97314.84
2023-01-11T07:01:35.717Z,97323.28
2023-01-11T07:04:08.386Z,97317.66
2023-01-11T07:06:41.049Z,97315.19
2023-01-11T07:09:13.690Z,97314.03
2023-01-11T07:11:46.400Z,97312.41
2023-01-11T07:14:19.036Z,97321.94
2023-01-11T07:16:51.650Z,97314.28
2023-01-11T07:19:24.298Z,97323.31
2023-01-11T07:21:56.899Z,97313.59
2023-01-11T07:24:29.607Z,97313.75
2023-01-11T07:27:02.391Z,97318.28
2023-01-11T07:29:35.069Z,97320.22
2023-01-11T07:32:07.943Z,97307.50
2023-01-11T07:34:40.621Z,97309.22
2023-01-11T07:37:29.146Z,97313.56
2023-01-11T07:40:02.061Z,97317.97
2023-01-11T07:42:34.734Z,97309.53
2023-01-11T07:45:07.982Z,97316.66
2023-01-11T07:47:40.608Z,97314.22
2023-01-11T07:50:13.246Z,97317.56
2023-01-11T07:52:49.857Z,97313.63
2023-01-11T07:55:22.632Z,97311.34
2023-01-11T07:57:59.167Z,97313.84
2023-01-11T08:00:32.431Z,97314.31
2023-01-11T08:03:05.161Z,97313.50
2023-01-11T08:05:38.063Z,97311.88
2023-01-11T08:08:10.729Z,97313.09
2023-01-11T08:10:43.336Z,97319.41
2023-01-11T08:13:18.426Z,97324.03
2023-01-11T08:15:51.141Z,97336.88
2023-01-11T08:18:23.817Z,97353.81
2023-01-11T08:20:56.435Z,97360.03
2023-01-11T08:23:29.087Z,97362.34
2023-01-11T08:26:02.577Z,97360.13
2023-01-11T08:28:35.169Z,97358.63
2023-01-11T08:31:08.468Z,97342.91
2023-01-11T08:33:41.094Z,97329.72
2023-01-11T08:36:13.773Z,97330.13
2023-01-11T08:38:46.359Z,97328.78
2023-01-11T08:41:19.018Z,97327.94
2023-01-11T08:43:51.981Z,97331.81
2023-01-11T08:46:25.318Z,97334.63
2023-01-11T08:48:57.916Z,97336.13
2023-01-11T08:51:30.588Z,97339.72
2023-01-11T08:54:03.216Z,97332.53
2023-01-11T08:56:36.577Z,97330.72
2023-01-11T08:59:10.119Z,97336.47
2023-01-11T09:01:42.722Z,97331.75
2023-01-11T09:04:24.892Z,97335.00
2023-01-11T09:06:58.089Z,97342.34
2023-01-11T09:09:30.664Z,97339.81
2023-01-11T09:12:05.647Z,97337.84
2023-01-11T09:14:38.526Z,97328.78
2023-01-11T09:17:11.145Z,97340.72
2023-01-11T09:19:43.792Z,97353.28
2023-01-11T09:22:16.476Z,97354.31
2023-01-11T09:24:49.246Z,97347.63
2023-01-11T09:27:21.812Z,97347.97
2023-01-11T09:29:54.442Z,97340.91
2023-01-11T09:32:27.032Z,97348.09
2023-01-11T09:34:59.684Z,97349.16
2023-01-11T09:37:32.551Z,97353.34
2023-01-11T09:40:15.462Z,97345.97
2023-01-11T09:42:52.612Z,97350.88
2023-01-11T09:45:27.947Z,97344.91
2023-01-11T09:48:09.116Z,97339.91
2023-01-11T09:50:46.869Z,97351.97
2023-01-11T09:53:31.429Z,97350.91
2023-01-11T09:56:14.238Z,97361.38
2023-01-11T09:59:14.740Z,97357.78
2023-01-11T10:02:01.852Z,97356.41
2023-01-11T10:05:10.039Z,97357.44
2023-01-11T10:18:28.388Z,97347.44
2023-01-11T10:18:37.854Z,97343.22
2023-01-11T10:21:15.133Z,97339.44
2023-01-11T10:24:02.818Z,97336.78
2023-01-11T10:26:38.952Z,97338.28
2023-01-11T10:29:14.835Z,97339.72
2023-01-11T10:31:59.403Z,97337.59
2023-01-11T10:34:41.156Z,97329.09
2023-01-11T10:37:20.554Z,97331.13
2023-01-11T10:39:55.851Z,97327.53
2023-01-11T10:42:39.794Z,97322.00
2023-01-11T10:45:52.243Z,97321.28
2023-01-11T10:48:39.942Z,97320.13
2023-01-11T10:51:21.279Z,97313.34
2023-01-11T10:54:18.801Z,97318.16
2023-01-11T10:57:07.201Z,97325.44
2023-01-11T10:59:49.761Z,97317.97
2023-01-11T11:02:28.274Z,97316.78
2023-01-11T11:05:22.253Z,97318.13
2023-01-11T11:08:16.542Z,97301.81
2023-01-11T11:11:16.769Z,97302.44
2023-01-11T11:14:13.516Z,97290.22
2023-01-11T11:17:13.109Z,97296.31
2023-01-11T11:19:45.882Z,97287.81
2023-01-11T11:22:19.418Z,97289.41
2023-01-11T11:25:01.397Z,97291.72
2023-01-11T11:27:49.175Z,97297.38
2023-01-11T11:30:35.883Z,97294.44
2023-01-11T11:33:18.832Z,97294.72
2023-01-11T11:36:01.496Z,97285.63
2023-01-11T11:38:37.854Z,97300.03
2023-01-11T11:41:13.297Z,97298.13
2023-01-11T11:43:47.463Z,97296.06
2023-01-11T11:46:27.426Z,97307.75
2023-01-11T11:49:15.835Z,97306.69
2023-01-11T11:51:49.071Z,97308.50
2023-01-11T11:54:24.649Z,97306.13
2023-01-11T11:57:12.395Z,97307.41
2023-01-11T11:59:50.631Z,97305.31
2023-01-11T12:02:32.168Z,97294.19
2023-01-11T12:05:10.287Z,97296.00
2023-01-11T12:07:55.186Z,97288.84
2023-01-11T12:10:31.803Z,97292.59
2023-01-11T12:13:08.930Z,97287.53
2023-01-11T12:16:02.688Z,97287.19
2023-01-11T12:18:42.618Z,97294.97
2023-01-11T12:21:24.491Z,97295.09
2023-01-11T12:24:15.004Z,97288.03
2023-01-11T12:27:29.789Z,97297.09
2023-01-11T12:30:11.083Z,97295.75
2023-01-11T12:33:03.399Z,97296.03
2023-01-11T12:36:08.148Z,97295.66
2023-01-11T12:39:14.071Z,97299.06
2023-01-11T12:42:11.174Z,97299.75
2023-01-11T12:45:18.265Z,97305.03
2023-01-11T12:48:09.595Z,97315.25
2023-01-11T12:50:57.072Z,97309.75
2023-01-11T12:53:51.480Z,97319.22
2023-01-11T12:56:45.885Z,97310.94
2023-01-11T13:00:05.631Z,97317.59
2023-01-11T13:03:16.447Z,97313.72
2023-01-11T13:06:10.319Z,97307.88
2023-01-11T13:09:04.611Z,97313.63
2023-01-11T13:12:01.719Z,97302.84
2023-01-11T13:14:49.661Z,97313.75
2023-01-11T13:17:33.601Z,97314.72
2023-01-11T13:20:09.139Z,97312.91
2023-01-11T13:22:55.259Z,97305.06
2023-01-11T13:25:33.970Z,97315.53
2023-01-11T13:28:28.048Z,97314.00
2023-01-11T13:31:05.189Z,97318.69
2023-01-11T13:33:46.613Z,97320.63
2023-01-11T13:36:30.219Z,97318.88
2023-01-11T13:39:16.551Z,97323.28
2023-01-11T13:41:58.986Z,97327.69
2023-01-11T13:44:39.237Z,97331.34
2023-01-11T13:47:24.032Z,97341.19
2023-01-11T13:50:11.513Z,97347.59
2023-01-11T13:52:44.114Z,97328.06
2023-01-11T13:55:43.793Z,97331.50
2023-01-11T13:58:25.706Z,97324.38
2023-01-11T14:01:15.478Z,97327.22
2023-01-11T14:04:31.014Z,97332.59
2023-01-11T14:07:23.461Z,97339.59
2023-01-11T14:10:08.602Z,97342.56
2023-01-11T14:12:56.299Z,97358.97
2023-01-11T14:15:53.232Z,97352.53
2023-01-11T14:18:39.348Z,97354.88
2023-01-11T14:21:37.954Z,97367.50
2023-01-11T14:24:12.499Z,97379.22
2023-01-11T14:27:09.627Z,97378.19
2023-01-11T14:30:16.703Z,97380.13
2023-01-11T14:33:12.115Z,97389.34
2023-01-11T14:36:24.454Z,97395.69
2023-01-11T14:39:25.169Z,97395.03
2023-01-11T14:42:32.045Z,97403.47
2023-01-11T14:45:39.299Z,97403.44
2023-01-11T14:48:14.875Z,97411.03
2023-01-11T14:51:01.889Z,97418.16
2023-01-11T14:53:50.041Z,97430.72
2023-01-11T14:56:44.004Z,97443.84
2023-01-11T14:59:37.617Z,97451.47
2023-01-11T15:02:10.206Z,97450.59
2023-01-11T15:04:51.694Z,97462.59
2023-01-11T15:07:30.353Z,97460.69
2023-01-11T15:10:30.830Z,97462.19
2023-01-11T15:13:14.716Z,97467.53
2023-01-11T15:15:48.899Z,97472.47
2023-01-11T15:18:25.292Z,97472.06
2023-01-11T15:21:06.902Z,97483.34
2023-01-11T15:23:50.285Z,97494.78
2023-01-11T15:26:25.775Z,97498.28
2023-01-11T15:29:01.944Z,97493.78
2023-01-11T15:31:37.400Z,97494.91
2023-01-11T15:34:27.507Z,97495.22
2023-01-11T15:37:00.056Z,97488.38
2023-01-11T15:39:51.335Z,97497.47
2023-01-11T15:42:37.688Z,97503.72
2023-01-11T15:45:46.424Z,97508.44
2023-01-11T15:48:37.809Z,97519.75
2023-01-11T15:51:27.493Z,97509.13
2023-01-11T15:54:23.179Z,97498.47
2023-01-11T15:57:04.874Z,97505.50
2023-01-11T16:00:15.395Z,97510.00
2023-01-11T16:03:25.175Z,97500.22
2023-01-11T16:06:36.898Z,97506.59
2023-01-11T16:09:22.817Z,97516.59
2023-01-11T16:12:29.226Z,97523.34
2023-01-11T16:15:20.443Z,97527.41
2023-01-11T16:17:54.353Z,97544.25
2023-01-11T16:20:27.595Z,97540.00
2023-01-11T16:23:03.342Z,97543.59
2023-01-11T16:25:42.102Z,97551.84
2023-01-11T16:28:16.436Z,97551.53
2023-01-11T16:31:09.328Z,97548.59
2023-01-11T16:33:43.229Z,97563.84
2023-01-11T16:36:24.923Z,97559.50
2023-01-11T16:39:11.151Z,97557.00
2023-01-11T16:42:03.191Z,97562.22
2023-01-11T16:44:51.550Z,97574.72
2023-01-11T16:47:24.226Z,97580.56
2023-01-11T16:50:23.463Z,97594.63
2023-01-11T16:53:04.871Z,97576.69
2023-01-11T16:55:59.638Z,97581.13
2023-01-11T16:58:42.120Z,97585.25
2023-01-11T17:01:15.534Z,97582.56
2023-01-11T17:03:54.607Z,97593.72
2023-01-11T17:06:27.234Z,97580.63
2023-01-11T17:09:06.683Z,97575.81
2023-01-11T17:11:43.941Z,97593.06
2023-01-11T17:14:22.647Z,97585.91
2023-01-11T17:17:02.877Z,97597.09
2023-01-11T17:19:41.996Z,97593.03
2023-01-11T17:22:27.346Z,97589.69
2023-01-11T17:25:02.914Z,97605.81
2023-01-11T17:27:40.551Z,97605.13
2023-01-11T17:30:21.678Z,97607.13
2023-01-11T17:32:57.419Z,97618.03
2023-01-11T17:35:40.894Z,97611.22
2023-01-11T17:38:20.578Z,97612.59
2023-01-11T17:40:55.297Z,97616.63
2023-01-11T17:43:29.438Z,97610.53
2023-01-11T17:46:03.962Z,97615.56
2023-01-11T17:48:36.622Z,97617.69
2023-01-11T17:51:09.635Z,97628.56
2023-01-11T17:53:49.743Z,97629.31
2023-01-11T17:56:40.012Z,97629.22
2023-01-11T17:59:29.128Z,97623.88
2023-01-11T18:02:13.055Z,97617.38
2023-01-11T18:04:57.338Z,97615.41
2023-01-11T18:07:30.298Z,97623.31
2023-01-11T18:10:03.848Z,97629.38
2023-01-11T18:12:36.641Z,97637.22
2023-01-11T18:15:19.786Z,97642.72
2023-01-11T18:17:52.412Z,97648.63
2023-01-11T18:20:34.387Z,97652.69
2023-01-11T18:23:21.187Z,97649.38
2023-01-11T18:26:24.865Z,97657.56
2023-01-11T18:28:57.472Z,97654.19
2023-01-11T18:31:30.402Z,97651.22
2023-01-11T18:34:03.817Z,97646.63
2023-01-11T18:36:36.388Z,97659.09
2023-01-11T18:39:10.679Z,97658.75
2023-01-11T18:41:44.847Z,97664.84
2023-01-11T18:44:17.569Z,97664.94
2023-01-11T18:46:50.236Z,97658.94
2023-01-11T18:49:22.912Z,97660.69
2023-01-11T18:51:55.496Z,97660.97
2023-01-11T18:54:28.107Z,97675.66
2023-01-11T18:57:00.719Z,97682.31
2023-01-11T18:59:33.975Z,97690.75
2023-01-11T19:02:25.378Z,97691.94
2023-01-11T19:04:58.068Z,97695.88
2023-01-11T19:07:30.706Z,97686.44
2023-01-11T19:10:04.364Z,97695.00
2023-01-11T19:12:36.945Z,97710.69
2023-01-11T19:15:10.149Z,97713.47
2023-01-11T19:17:43.347Z,97704.91
2023-01-11T19:20:16.111Z,97706.78
2023-01-11T19:22:48.707Z,97701.16
2023-01-11T19:25:21.441Z,97698.59
2023-01-11T19:27:55.033Z,97689.53
2023-01-11T19:30:27.850Z,97687.47
2023-01-11T19:33:00.455Z,97687.59
2023-01-11T19:35:33.075Z,97681.00
2023-01-11T19:38:05.731Z,97680.91
2023-01-11T19:40:38.307Z,97688.91
2023-01-11T19:43:10.961Z,97694.22
2023-01-11T19:45:43.545Z,97699.78
2023-01-11T19:48:16.111Z,97702.66
2023-01-11T19:50:48.763Z,97704.09
2023-01-11T19:53:21.402Z,97709.41
2023-01-11T19:55:53.996Z,97708.25
2023-01-11T19:58:26.752Z,97707.13
2023-01-11T20:00:59.843Z,97695.56
2023-01-11T20:03:32.458Z,97697.41
2023-01-11T20:06:07.975Z,97696.19
2023-01-11T20:08:40.597Z,97692.97
2023-01-11T20:11:15.380Z,97699.00
2023-01-11T20:13:48.747Z,97706.09
2023-01-11T20:16:23.523Z,97708.66
2023-01-11T20:18:57.364Z,97710.56
2023-01-11T20:21:30.175Z,97716.19
2023-01-11T20:24:04.612Z,97714.59
2023-01-11T20:26:37.224Z,97718.47
2023-01-11T20:29:09.891Z,97718.22
2023-01-11T20:31:42.572Z,97720.75
2023-01-11T20:34:17.134Z,97716.56
2023-01-11T20:36:49.738Z,97730.66
2023-01-11T20:39:22.329Z,97734.00
2023-01-11T20:41:55.003Z,97733.97
2023-01-11T20:44:27.811Z,97733.50
2023-01-11T20:47:00.495Z,97732.44
2023-01-11T20:49:33.235Z,97740.94
2023-01-11T20:52:05.958Z,97737.69
2023-01-11T20:54:38.504Z,97736.00
2023-01-11T20:57:11.087Z,97736.34
2023-01-11T20:59:43.675Z,97729.47
2023-01-11T21:02:16.339Z,97732.56
2023-01-11T21:04:48.982Z,97730.66
2023-01-11T21:07:21.629Z,97736.09
2023-01-11T21:09:54.252Z,97747.97
2023-01-11T21:12:26.845Z,97752.84
2023-01-11T21:14:59.410Z,97751.13
2023-01-11T21:17:32.031Z,97754.50
2023-01-11T21:20:05.587Z,97755.03
2023-01-11T21:22:38.219Z,97764.25
2023-01-11T21:25:10.836Z,97766.34
2023-01-11T21:27:43.532Z,97761.94
2023-01-11T21:30:16.562Z,97772.53
2023-01-11T21:32:49.168Z,97770.78
2023-01-11T21:35:25.163Z,97778.81
2023-01-11T21:37:58.124Z,97778.25
2023-01-11T21:40:30.800Z,97783.47
2023-01-11T21:43:03.455Z,97771.81
2023-01-11T21:45:36.039Z,97780.13
2023-01-11T21:48:08.661Z,97787.16
2023-01-11T21:50:45.469Z,97787.44
2023-01-11T21:53:18.306Z,97782.34
2023-01-11T21:55:50.947Z,97782.81
2023-01-11T21:58:23.615Z,97777.63
2023-01-11T22:00:56.294Z,97774.06
2023-01-11T22:03:29.420Z,97779.69
2023-01-11T22:06:03.996Z,97776.84
2023-01-11T22:08:38.518Z,97793.44
2023-01-11T22:11:13.369Z,97785.44
2023-01-11T22:13:46.012Z,97776.50
2023-01-11T22:16:18.796Z,97777.84
2023-01-11T22:18:51.388Z,97784.31
2023-01-11T22:21:24.535Z,97787.22
2023-01-11T22:23:59.084Z,97790.41
2023-01-11T22:26:32.706Z,97787.09
2023-01-11T22:29:07.720Z,97783.84
2023-01-11T22:32:00.520Z,97776.97
2023-01-11T22:34:33.159Z,97768.19
2023-01-11T22:37:06.643Z,97771.00
2023-01-11T22:39:39.227Z,97771.34
2023-01-11T22:42:11.848Z,97778.44
2023-01-11T22:44:44.451Z,97788.25
2023-01-11T22:47:17.121Z,97791.59
2023-01-11T22:49:49.739Z,97805.06
2023-01-11T22:52:22.375Z,97811.00
2023-01-11T22:54:55.033Z,97809.31
2023-01-11T22:57:27.794Z,97809.94
2023-01-11T23:00:00.443Z,97804.00
2023-01-11T23:02:33.055Z,97802.16
2023-01-11T23:05:06.093Z,97812.28
2023-01-11T23:07:38.723Z,97827.25
2023-01-11T23:10:11.364Z,97824.59
2023-01-11T23:12:44.175Z,97824.78
2023-01-11T23:15:16.945Z,97827.63
2023-01-11T23:17:49.652Z,97827.63
2023-01-11T23:20:22.346Z,97830.44
2023-01-11T23:22:54.987Z,97829.41
2023-01-11T23:25:27.700Z,97829.91
2023-01-11T23:28:00.519Z,97826.41
2023-01-11T23:30:33.143Z,97832.84
2023-01-11T23:33:05.891Z,97827.44
2023-01-11T23:35:38.530Z,97835.56
2023-01-11T23:38:11.160Z,97823.75
2023-01-11T23:40:43.738Z,97819.84
2023-01-11T23:43:16.507Z,97807.16
2023-01-11T23:45:49.549Z,97801.19
2023-01-11T23:48:26.372Z,97803.06
2023-01-11T23:51:03.924Z,97797.41
2023-01-11T23:53:36.664Z,97791.28
2023-01-11T23:56:09.299Z,97786.19
2023-01-11T23:58:41.865Z,97788.38
